CheckWX is a tool to help pilots better visualize weather data.  It is not intended as a substitute for an official pre-flight weather briefing.

15:37:07 UTC

EPKT METAR
Katowice International Airport
Katowice, Poland
Current

37 mins ago

EPKT 211500Z 31009KT 9999 FEW030TCU 03/M00 Q1021
Observed
Feb-21 @ 15:00 UTC
Wind
  • 310° at 9 KTS
Visibility
10,000+ meters
Flight Rules
VFR
Cloud Levels
  • Few at 3,000' AGL
Temperature
C / 37°F
Dewpoint
C / 32°F
Humidity
81%
Altimeter
30.15" Hg
Pressure
1020.92 hPa
Previous

1 hour ago

EPKT 211430Z 31015G25KT 280V340 9999 FEW004 SCT028CB 03/M01 Q1021
Observed
Feb-21 @ 14:30 UTC
Wind
  • 310° at 15 KTS
  • Gusting to 25 KTS
Visibility
10,000+ meters
Flight Rules
VFR
Cloud Levels
  • Few at 400' AGL
  • Scattered at 2,800' AGL
Temperature
C / 37°F
Dewpoint
-1°C / 30°F
Humidity
75%
Altimeter
30.15" Hg
Pressure
1020.92 hPa
Previous

2 hours ago

EPKT 211400Z 28013KT 9999 FEW028 SCT045 05/00 Q1020
Observed
Feb-21 @ 14:00 UTC
Wind
  • 280° at 13 KTS
Visibility
10,000+ meters
Flight Rules
VFR
Cloud Levels
  • Few at 2,800' AGL
  • Scattered at 4,500' AGL
Temperature
C / 41°F
Dewpoint
C / 32°F
Humidity
70%
Altimeter
30.12" Hg
Pressure
1019.92 hPa